Tiempo atmosférico en la estación meteorológica de Doña Mencia, Córdoba (650 m.)



Fecha
DESCASC
Temp. máxima en grados centígrados (hora)
DESCASC
Temp. mínima en grados centígrados (hora)
DESCASC
Temp. media en grados centígrados
DESCASC
Racha de viento máxima en m/sg (hora)
DESCASC
Velocidad máxima media en intervalos de 10 minutos(hora)
DESCASC
Precipitaciones diarias en mm
DESCASC
Precipitaciones de 00:00 a 06:00 en mm
DESCASC
Precipitaciones de 06:00 a 12:00 en mm
DESCASC
Precipitaciones de 12:00 a 18:00 en mm
DESCASC
Precipitaciones de 18:00 a 24:00 en mm
DESCASC
26-03-2020 18 (16:20) 9.9 (03:50) 13.9 12.5 (02:20) 6.67 (02:20) 1.9 1.8 0.1 0 0
25-03-2020 15.9 (16:10) 9.1 (04:10) 12.5 10 (23:00) 5.83 (23:50) 0 0 0 0 0
24-03-2020 18.3 (15:10) 8.4 (07:00) 13.3 9.72 (17:20) 5 (21:50) 0.1 0.1 0 0 0
23-03-2020 16.1 (14:20) 6.8 (06:20) 11.5 13.61 (17:40) 4.17 (18:00) 2.7 0 0 1.5 1.2
22-03-2020 13.7 (17:40) 6.6 (07:00) 10.1 6.11 (18:00) 3.89 (18:00) 4 0 1 2.9 0.1
21-03-2020 14.7 (14:40) 6.1 (00:00) 10.4 11.67 (04:50) 7.22 (04:50) 17.7 14.9 0.9 1.4 0.5
20-03-2020 18 (16:30) 9.5 (00:00) 13.8 7.78 (07:40) 3.89 (04:50) 0 0 0 0 0
19-03-2020 20 (14:20) 10 (00:00) 15 7.22 (10:10) 3.89 (10:20) 0 0 0 0 0
18-03-2020 22.9 (15:40) 12.9 (00:00) 17.9 16.94 (04:40) 10.83 (04:30) 0 0 0 0 0
17-03-2020 16.8 (14:50) 5.6 (00:00) 11.2 11.11 (15:20) 5.83 (15:30) 0.3 0.3 0 0 0
16-03-2020 13.8 (00:10) 5.1 (00:00) 9.5 11.67 (12:00) 5.83 (02:20) 9.7 9.1 0 0 0.6
15-03-2020 20 (17:20) 11.9 (00:00) 15.9 10.28 (23:20) 5.83 (23:20) 0 0 0 0 0
14-03-2020 21.8 (16:50) 12.4 (00:00) 17.1 6.67 (15:30) 3.06 (16:00) 0 0 0 0 0
13-03-2020 20.8 (16:00) 14.2 (07:50) 17.5 7.78 (16:50) 5 (16:40) 0 0 0 0 0
12-03-2020 26.8 (15:30) 15.4 (00:00) 21.1 8.33 (02:10) 5 (18:00) 0 0 0 0 0
11-03-2020 -- (--) -- (--) -- 8.06 (05:00) 5.83 (04:40) 0 0 0 0 0
10-03-2020 24.6 (17:10) 11.5 (00:00) 18.1 8.89 (09:40) 4.17 (09:40) 0 0 0 0 0
09-03-2020 19.5 (16:50) 10 (00:00) 14.8 6.11 (16:20) 3.61 (14:30) 0 0 0 0 0
08-03-2020 20.9 (17:10) 9.6 (00:00) 15.3 6.39 (08:50) 4.17 (06:50) 0 0 0 0 0
07-03-2020 16.2 (16:50) 6.7 (00:00) 11.5 11.39 (10:20) 6.11 (10:20) 0 0 0 0 0
06-03-2020 15.2 (16:20) 6 (00:00) 10.6 10 (13:00) 6.11 (14:40) 0 0 0 0 0
05-03-2020 15 (12:20) 9.8 (00:00) 12.4 11.67 (12:20) 6.67 (13:50) 0 0 0 0 0
04-03-2020 18.4 (17:10) 11.6 (00:00) 15 8.33 (14:40) 3.89 (14:50) 0 0 0 0 0
03-03-2020 14.8 (15:30) 7.4 (00:00) 11.1 10 (14:30) 6.11 (14:50) 0 0 0 0 0
02-03-2020 16.7 (15:40) 9.7 (00:00) 13.2 19.72 (15:20) 11.39 (13:30) 4.4 1.3 3.1 0 0
01-03-2020 15.7 (15:40) 9.6 (00:00) 12.7 13.06 (23:59) 7.5 (22:20) 0.7 0.7 0 0 0
29-02-2020 14.8 (13:40) 9.5 (00:00) 12.2 11.39 (15:10) 7.22 (15:30) 1.7 0 0 0 1.7
28-02-2020 22.7 (16:10) 12.2 (00:00) 17.5 7.22 (17:00) 5.28 (08:20) 0 0 0 0 0

Gráficas

Temp. máximas Temp. mínimas Temp. medias Precipitaciones Rachas de viento máximas Velocidades máximas media en intervalos de 10 minutos

Datos horarios

Fecha y hora oficial Temperatura (ºC) Velocidad del viento (km/h) Dirección del viento Racha (km/h) Dirección de racha Precipitación (mm) Presión (hPa) Tendencia (hPa) Humedad (%)
2020-03-28 23:00:00 9.9 9 Norte 15 Noroeste 0 -- -- 80
2020-03-28 22:00:00 10.8 8 Norte 15 Noroeste 0 -- -- 77
2020-03-28 21:00:00 11.4 9 Noroeste 18 Norte 0 -- -- 73
2020-03-28 20:00:00 12.2 6 Noroeste 17 Oeste 0 -- -- 68
2020-03-28 19:00:00 13.7 5 Noroeste 12 Oeste 0 -- -- 54
2020-03-28 18:00:00 16.6 3 Oeste 12 Norte 0 -- -- 47
2020-03-28 17:00:00 15.2 0 Calma 15 Noroeste 0 -- -- 51
2020-03-28 16:00:00 16 6 Noroeste 16 Noroeste 0 -- -- 51
2020-03-28 15:00:00 15.5 5 Norte 13 Este 0 -- -- 54
2020-03-28 14:00:00 15.1 4 Nordeste 14 Este 0 -- -- 54
2020-03-28 13:00:00 14.2 3 Norte 15 Sudeste 0 -- -- 58
2020-03-28 12:00:00 13.8 5 Sudeste 14 Sudeste 0 -- -- 63
2020-03-28 11:00:00 13.5 5 Noroeste 12 Sudeste 0 -- -- 67
2020-03-28 10:00:00 13.4 6 Este 16 Sudeste 0 -- -- 68
2020-03-28 09:00:00 11 8 Este 16 Este 0 -- -- 82
2020-03-28 08:00:00 8 12 Este 15 Este 0 -- -- 93
2020-03-28 07:00:00 7.3 10 Este 14 Este 0 -- -- 93
2020-03-28 06:00:00 7.7 5 Nordeste 9 Este 0 -- -- 93
2020-03-28 05:00:00 7.9 0 Calma 6 Nordeste 0 -- -- 93
2020-03-28 04:00:00 7.9 0 Calma 14 Noroeste 0 -- -- 89
2020-03-28 03:00:00 8.4 4 Noroeste 14 Noroeste 0 -- -- 82
2020-03-28 02:00:00 8.5 4 Noroeste 14 Noroeste 0 -- -- 78
2020-03-28 01:00:00 8.9 6 Noroeste 13 Oeste 0 -- -- 73
2020-03-28 00:00:00 9.9 6 Oeste 12 Oeste 0 -- -- 73
2020-03-27 23:00:00 10.1 3 Noroeste 9 Noroeste 0 -- -- 70
2020-03-27 22:00:00 11 5 Noroeste 13 Noroeste 0 -- -- 64
2020-03-27 21:00:00 10.8 4 Noroeste 10 Oeste 0 -- -- 62
2020-03-27 20:00:00 11.5 7 Oeste 24 Oeste 0 -- -- 55
2020-03-27 19:00:00 13.3 18 Oeste 33 Oeste 0 -- -- 48
2020-03-27 18:00:00 14.9 17 Noroeste 36 Noroeste 0 -- -- 46
2020-03-27 17:00:00 13.5 21 Noroeste 38 Oeste 0 -- -- 50
2020-03-27 16:00:00 14.3 20 Oeste 41 Oeste 0 -- -- 49
2020-03-27 15:00:00 14.3 23 Oeste 39 Noroeste 0 -- -- 50
2020-03-27 14:00:00 14.8 21 Oeste 44 Oeste 0 -- -- 48
2020-03-27 13:00:00 15.4 28 Oeste 48 Oeste 0 -- -- 45
2020-03-27 12:00:00 14.4 20 Oeste 40 Oeste 0 -- -- 57
2020-03-27 11:00:00 13 15 Oeste 36 Oeste 0 -- -- 71
2020-03-27 10:00:00 11.1 12 Noroeste 20 Noroeste 0 -- -- 89
2020-03-27 09:00:00 9.6 10 Noroeste 21 Noroeste 0 -- -- 92
2020-03-27 08:00:00 8.9 15 Noroeste 28 Noroeste 0 -- -- 90
2020-03-27 07:00:00 9.9 7 Noroeste 30 Sudoeste 0 -- -- 84
2020-03-27 06:00:00 9.3 8 Oeste 22 Oeste 0 -- -- 86
2020-03-27 05:00:00 10 2 Norte 12 Sur 0 -- -- 79
2020-03-27 04:00:00 10.2 0 Calma 22 Oeste 0 -- -- 77
2020-03-27 03:00:00 10.3 8 Noroeste 19 Oeste 0 -- -- 78
2020-03-27 02:00:00 10.8 8 Noroeste 20 Oeste 0 -- -- 77
2020-03-27 01:00:00 11.4 9 Noroeste 29 Oeste 0 -- -- 74
2020-03-27 00:00:00 12 13 Oeste 28 Oeste 0 -- -- 72
2020-03-26 23:00:00 12.5 14 Oeste 30 Sudoeste 0 -- -- 71
2020-03-26 22:00:00 13.2 14 Oeste 28 Oeste 0 -- -- 65
2020-03-26 21:00:00 14 17 Oeste 32 Oeste 0 -- -- 59
2020-03-26 20:00:00 15.2 15 Oeste 27 Oeste 0 -- -- 48
2020-03-26 19:00:00 15.8 18 Noroeste 32 Oeste 0 -- -- 51
2020-03-26 18:00:00 16.2 21 Oeste 38 Oeste 0 -- -- 49
2020-03-26 17:00:00 17.6 20 Oeste 36 Oeste 0 -- -- 48
2020-03-26 16:00:00 17.4 21 Oeste 36 Oeste 0 -- -- 47
2020-03-26 15:00:00 16.9 19 Oeste 36 Oeste 0 -- -- 53
2020-03-26 14:00:00 15 18 Oeste 32 Sudoeste 0 -- -- 61
2020-03-26 13:00:00 14.3 15 Oeste 33 Oeste 0 -- -- 70
2020-03-26 12:00:00 13 18 Oeste 34 Oeste 0 -- -- 88
2020-03-26 11:00:00 11 20 Oeste 33 Oeste 0 -- -- 99
2020-03-26 10:00:00 10.1 19 Oeste 30 Oeste 0 -- -- 99
2020-03-26 09:00:00 9.9 19 Oeste 34 Oeste 0 -- -- 99
2020-03-26 08:00:00 9.9 21 Oeste 36 Oeste 0.1 -- -- 99
2020-03-26 07:00:00 10 19 Oeste 31 Oeste 0 -- -- 99
2020-03-26 06:00:00 10 15 Oeste 32 Oeste 0 -- -- 99
2020-03-26 05:00:00 10.1 16 Oeste 30 Oeste 0 -- -- 99
2020-03-26 04:00:00 10 8 Noroeste 34 Oeste 1.8 -- -- 99
2020-03-26 03:00:00 10.2 18 Oeste 45 Oeste 0 -- -- 99
2020-03-26 02:00:00 10.3 21 Oeste 37 Oeste 0 -- -- 99
2020-03-26 01:00:00 10.8 19 Oeste 37 Oeste 0 -- -- 97
2020-03-26 00:00:00 11 18 Oeste 33 Oeste 0 -- -- 91
2020-03-25 23:00:00 11.4 18 Oeste 36 Oeste 0 -- -- 86
2020-03-25 22:00:00 11.9 14 Oeste 27 Oeste 0 -- -- 83
2020-03-25 21:00:00 11.7 10 Noroeste 27 Oeste 0 -- -- 81
2020-03-25 20:00:00 12.5 9 Oeste 28 Sudoeste 0 -- -- 71
2020-03-25 19:00:00 14 11 Oeste 26 Oeste 0 -- -- 65
2020-03-25 18:00:00 14.3 14 Oeste 31 Oeste 0 -- -- 64
2020-03-25 17:00:00 15.7 16 Oeste 30 Oeste 0 -- -- 59
2020-03-25 16:00:00 14.8 18 Oeste 28 Oeste 0 -- -- 62
2020-03-25 15:00:00 15 14 Oeste 26 Oeste 0 -- -- 65
2020-03-25 14:00:00 13.7 15 Oeste 26 Oeste 0 -- -- 70
2020-03-25 13:00:00 13.9 13 Oeste 23 Noroeste 0 -- -- 64
2020-03-25 12:00:00 14.8 11 Oeste 22 Oeste 0 -- -- 67
2020-03-25 11:00:00 13.3 9 Oeste 20 Noroeste 0 -- -- 68
2020-03-25 10:00:00 11.4 12 Noroeste 17 Noroeste 0 -- -- 76
2020-03-25 09:00:00 9.9 5 Noroeste 10 Noroeste 0 -- -- 85
2020-03-25 08:00:00 10.1 6 Noroeste 11 Noroeste 0 -- -- 79
2020-03-25 07:00:00 9.2 0 Calma 6 Este 0 -- -- 87
2020-03-25 06:00:00 9.3 6 Este 14 Este 0 -- -- 85
2020-03-25 05:00:00 9.7 11 Este 18 Este 0 -- -- 84
2020-03-25 04:00:00 9.2 14 Este 17 Este 0 -- -- 87
2020-03-25 03:00:00 9.6 4 Oeste 19 Sudeste 0 -- -- 80
2020-03-25 02:00:00 10.8 13 Sudeste 18 Este 0 -- -- 70
2020-03-25 01:00:00 10.8 12 Este 19 Sudeste 0 -- -- 68
2020-03-25 00:00:00 12.3 2 Sur 19 Sudeste 0 -- -- 58
2020-03-24 23:00:00 12.5 0 Calma 22 Este 0 -- -- 57
2020-03-24 22:00:00 12.5 16 Sudeste 28 Sudeste 0 -- -- 58
2020-03-24 21:00:00 12 10 Este 30 Sudeste 0 -- -- 59
2020-03-24 20:00:00 13.1 7 Sudeste 24 Este 0 -- -- 54
2020-03-24 19:00:00 14.6 12 Nordeste 26 Nordeste 0 -- -- 51
2020-03-24 18:00:00 16.5 5 Norte 35 Nordeste 0 -- -- 47
2020-03-24 17:00:00 17.2 7 Nordeste 31 Nordeste 0 -- -- 46
2020-03-24 16:00:00 16.9 6 Nordeste 31 Norte 0 -- -- 48
2020-03-24 15:00:00 17.5 11 Nordeste 30 Nordeste 0 -- -- 48
2020-03-24 14:00:00 17.4 4 Nordeste 26 Este 0 -- -- 49
2020-03-24 13:00:00 17.2 10 Sudeste 33 Sudeste 0 -- -- 54
2020-03-24 12:00:00 15.4 6 Sudeste 31 Este 0 -- -- 60
2020-03-24 11:00:00 13.4 6 Nordeste 20 Nordeste 0 -- -- 70
2020-03-24 10:00:00 10.8 0 Calma 12 Sur 0 -- -- 86
2020-03-24 09:00:00 9.7 0 Calma 18 Este 0 -- -- 88
2020-03-24 08:00:00 9 2 Sur 18 Sur 0 -- -- 91
2020-03-24 07:00:00 8.5 6 Este 17 Nordeste 0 -- -- 96
2020-03-24 06:00:00 8.8 4 Sudeste 28 Sudeste 0 -- -- 97
2020-03-24 05:00:00 9 3 Sudeste 17 Este 0 -- -- 99
2020-03-24 04:00:00 9 10 Nordeste 18 Este 0 -- -- 99
2020-03-24 03:00:00 9.2 8 Este 15 Este 0 -- -- 95
2020-03-24 02:00:00 9.2 3 Sudeste 24 Sudeste 0 -- -- 98
2020-03-24 01:00:00 9.2 3 Este 19 Sudeste 0.1 -- -- 99
2020-03-24 00:00:00 9.2 12 Sudeste 26 Sudeste 0 -- -- 99
2020-03-23 23:00:00 8.9 0 Calma 18 Este 0.3 -- -- 99
2020-03-23 22:00:00 8.8 6 Este 16 Este 0.2 -- -- 99
2020-03-23 21:00:00 8.9 6 Este 17 Nordeste 0 -- -- 99
2020-03-23 20:00:00 9.3 5 Este 10 Este 0 -- -- 86
2020-03-23 19:00:00 8.9 3 Norte 20 Sur 0.7 -- -- 95
2020-03-23 18:00:00 9.6 15 Sur 49 Sudeste 1.5 -- -- 80
2020-03-23 17:00:00 13.7 9 Oeste 14 Oeste 0 -- -- 52
2020-03-23 16:00:00 15 6 Sudeste 15 Sudeste 0 -- -- 47
2020-03-23 15:00:00 14 8 Sur 26 Este 0 -- -- 48
2020-03-23 14:00:00 15.1 6 Sudeste 22 Sudeste 0 -- -- 47
2020-03-23 13:00:00 14.5 6 Este 21 Sudeste 0 -- -- 51
2020-03-23 12:00:00 13.9 10 Sudeste 26 Sudeste 0 -- -- 56
2020-03-23 11:00:00 14 4 Nordeste 20 Sudeste 0 -- -- 65
2020-03-23 10:00:00 11 7 Sudeste 15 Sudeste 0 -- -- 71
2020-03-23 09:00:00 9.7 8 Sudeste 18 Sudeste 0 -- -- 79
2020-03-23 08:00:00 7.4 9 Este 17 Este 0 -- -- 91
2020-03-23 07:00:00 7.1 11 Este 16 Este 0 -- -- 93
2020-03-23 06:00:00 7 3 Este 9 Este 0 -- -- 91
2020-03-23 05:00:00 7.6 8 Nordeste 10 Nordeste 0 -- -- 88
2020-03-23 04:00:00 7.7 8 Este 9 Este 0 -- -- 87
2020-03-23 03:00:00 8.3 0 Calma 3 Norte 0 -- -- 85
2020-03-23 02:00:00 8.3 0 Calma 4 Noroeste 0 -- -- 84
2020-03-23 01:00:00 8.7 0 Calma 6 Norte 0 -- -- 85
2020-03-23 00:00:00 8.9 4 Noroeste 10 Noroeste 0 -- -- 85
2020-03-22 23:00:00 8.5 0 Calma 4 Sudeste 0 -- -- 87
2020-03-22 22:00:00 8.6 0 Calma 11 Este 0 -- -- 88
2020-03-22 21:00:00 8.9 8 Este 12 Este 0 -- -- 88
2020-03-22 20:00:00 9.3 9 Sudeste 14 Este 0.1 -- -- 88
2020-03-22 19:00:00 10.4 8 Norte 20 Noroeste 0 -- -- 70
2020-03-22 18:00:00 11.8 14 Oeste 22 Oeste 0 -- -- 60
2020-03-22 17:00:00 12 6 Sudoeste 15 Noroeste 0 -- -- 68
2020-03-22 16:00:00 12.9 4 Sur 14 Noroeste 2.4 -- -- 73
2020-03-22 15:00:00 10.3 9 Noroeste 14 Noroeste 0 -- -- 78
2020-03-22 14:00:00 10.3 5 Oeste 10 Oeste 0 -- -- 92
2020-03-22 13:00:00 9.2 0 Calma 12 Sudoeste 0.5 -- -- 99
2020-03-22 12:00:00 9.2 0 Calma 10 Norte 1 -- -- 92
2020-03-22 11:00:00 10 3 Sudeste 8 Noroeste 0 -- -- 79
2020-03-22 10:00:00 9.3 4 Noroeste 7 Norte 0 -- -- 84
2020-03-22 09:00:00 8.8 0 Calma 10 Este 0 -- -- 88
2020-03-22 08:00:00 7.4 5 Este 8 Este 0 -- -- 98
2020-03-22 07:00:00 6.7 3 Nordeste 7 Este 0 -- -- 96
2020-03-22 06:00:00 7.2 2 Este 4 Este 0 -- -- 93
2020-03-22 05:00:00 7.9 0 Calma 8 Sudeste 0 -- -- 84
2020-03-22 04:00:00 8.1 7 Este 11 Este 0 -- -- 81
2020-03-22 03:00:00 8.3 5 Nordeste 14 Este 0 -- -- 78
2020-03-22 02:00:00 8.4 4 Este 20 Este 0 -- -- 77
2020-03-22 01:00:00 8.2 9 Sudeste 16 Sur 0 -- -- 79
2020-03-22 00:00:00 8.1 5 Sur 19 Sudoeste 0 -- -- 79
2020-03-21 23:00:00 8.1 5 Sudoeste 19 Sudoeste 0 -- -- 80
2020-03-21 22:00:00 8.3 7 Sudoeste 29 Sur 0.1 -- -- 78
2020-03-21 21:00:00 8.5 17 Sur 41 Sudoeste 0.3 -- -- 72
2020-03-21 20:00:00 10 17 Sudoeste 33 Sur 0 -- -- 69
2020-03-21 19:00:00 10.3 18 Sur 37 Sur 0.1 -- -- 67
2020-03-21 18:00:00 9.5 17 Sur 39 Sur 0.7 -- -- 78
2020-03-21 17:00:00 9.5 14 Sudoeste 36 Oeste 0.7 -- -- 90
2020-03-21 16:00:00 11 16 Oeste 37 Oeste 0 -- -- 74
2020-03-21 15:00:00 13.5 12 Oeste 28 Oeste 0 -- -- 49
2020-03-21 14:00:00 13.3 8 Oeste 23 Noroeste 0 -- -- 53
2020-03-21 13:00:00 13.5 12 Oeste 29 Noroeste 0 -- -- 55
2020-03-21 12:00:00 12.6 9 Sudoeste 26 Sudoeste 0 -- -- 60
2020-03-21 11:00:00 11 11 Oeste 27 Oeste 0 -- -- 67
2020-03-21 10:00:00 8.8 15 Noroeste 24 Noroeste 0 -- -- 82
2020-03-21 09:00:00 7.8 4 Noroeste 26 Oeste 0 -- -- 99
2020-03-21 08:00:00 7.1 8 Oeste 22 Oeste 0 -- -- 99
2020-03-21 07:00:00 6.3 6 Oeste 39 Oeste 0.9 -- -- 99
2020-03-21 06:00:00 6.4 18 Oeste 39 Oeste 7.2 -- -- 99
2020-03-21 05:00:00 7.7 25 Oeste 42 Oeste 4.9 -- -- 99
2020-03-21 04:00:00 9 23 Oeste 35 Oeste 2.8 -- -- 99
2020-03-21 03:00:00 12.2 0 Calma 22 Sudeste 0 -- -- 74
2020-03-21 02:00:00 13.1 10 Sudeste 27 Sudeste 0 -- -- 68
2020-03-21 01:00:00 13.2 8 Sudeste 24 Este 0 -- -- 68
2020-03-21 00:00:00 13.3 2 Este 18 Oeste 0 -- -- 69
2020-03-20 23:00:00 13.3 8 Oeste 23 Sur 0 -- -- 68
2020-03-20 22:00:00 13.4 5 Sudeste 19 Este 0 -- -- 68
2020-03-20 21:00:00 14 3 Noroeste 12 Sudeste 0 -- -- 63
2020-03-20 20:00:00 13.7 4 Este 14 Norte 0 -- -- 63
2020-03-20 19:00:00 16 6 Noroeste 10 Noroeste 0 -- -- 57
2020-03-20 18:00:00 17.4 0 Calma 14 Noroeste 0 -- -- 54
2020-03-20 17:00:00 17.5 4 Oeste 14 Oeste 0 -- -- 54
2020-03-20 16:00:00 16.5 5 Oeste 21 Oeste 0 -- -- 56
2020-03-20 15:00:00 16.5 13 Oeste 23 Oeste 0 -- -- 56
2020-03-20 14:00:00 16.3 8 Oeste 17 Oeste 0 -- -- 57
2020-03-20 13:00:00 15.3 10 Oeste 18 Noroeste 0 -- -- 59
2020-03-20 12:00:00 15.8 6 Noroeste 13 Oeste 0 -- -- 63
2020-03-20 11:00:00 14.5 4 Noroeste 10 Noroeste 0 -- -- 70
2020-03-20 10:00:00 13.2 3 Oeste 13 Este 0 -- -- 79
2020-03-20 09:00:00 11.5 8 Este 18 Sur 0 -- -- 94
2020-03-20 08:00:00 10.2 5 Sudeste 28 Sudeste 0 -- -- 99
2020-03-20 07:00:00 9.7 10 Sudeste 23 Sudeste 0 -- -- 97
2020-03-20 06:00:00 9.9 8 Este 19 Nordeste 0 -- -- 97
2020-03-20 05:00:00 9.5 10 Este 20 Este 0 -- -- 97
2020-03-20 04:00:00 10 8 Este 13 Sudeste 0 -- -- 97
2020-03-20 03:00:00 10 4 Norte 9 Norte 0 -- -- 98
2020-03-20 02:00:00 10.4 3 Norte 16 Noroeste 0 -- -- 97
2020-03-20 01:00:00 10.9 5 Noroeste 18 Noroeste 0 -- -- 94
2020-03-20 00:00:00 11.6 6 Norte 12 Norte 0 -- -- 88
2020-03-19 23:00:00 13.4 3 Este 15 Este 0 -- -- 75
2020-03-19 22:00:00 12.4 6 Norte 12 Norte 0 -- -- 84
2020-03-19 21:00:00 13.1 0 Calma 7 Norte 0 -- -- 81
2020-03-19 20:00:00 13.9 5 Noroeste 13 Noroeste 0 -- -- 75
2020-03-19 19:00:00 14.6 6 Noroeste 21 Noroeste 0 -- -- 68
2020-03-19 18:00:00 17.4 5 Noroeste 20 Noroeste 0 -- -- 51
2020-03-19 17:00:00 18.5 5 Noroeste 14 Noroeste 0 -- -- 49
2020-03-19 16:00:00 18.1 5 Nordeste 11 Nordeste 0 -- -- 50
2020-03-19 15:00:00 17.9 4 Nordeste 18 Noroeste 0 -- -- 49
2020-03-19 14:00:00 19 2 Nordeste 15 Oeste 0 -- -- 48
2020-03-19 13:00:00 17.7 4 Nordeste 16 Sudeste 0 -- -- 53
2020-03-19 12:00:00 15.4 7 Nordeste 18 Este 0 -- -- 60
2020-03-19 11:00:00 15.8 11 Este 26 Este 0 -- -- 62
2020-03-19 10:00:00 13.1 13 Este 24 Sudeste 0 -- -- 77
2020-03-19 09:00:00 11.9 12 Este 19 Este 0 -- -- 87
2020-03-19 08:00:00 10.5 4 Este 13 Sudeste 0 -- -- 94
2020-03-19 07:00:00 10.3 12 Sudeste 18 Sudeste 0 -- -- 91
2020-03-19 06:00:00 10.1 9 Este 13 Este 0 -- -- 84
2020-03-19 05:00:00 10.6 3 Nordeste 8 Este 0 -- -- 82
2020-03-19 04:00:00 11.5 3 Noroeste 8 Este 0 -- -- 74
2020-03-19 03:00:00 11.5 8 Este 12 Este 0 -- -- 75
2020-03-19 02:00:00 12.7 0 Calma 6 Norte 0 -- -- 73
2020-03-19 01:00:00 12.7 0 Calma 10 Noroeste 0 -- -- 71
2020-03-19 00:00:00 13.5 7 Noroeste 12 Noroeste 0 -- -- 68
2020-03-18 23:00:00 14.8 4 Noroeste 21 Este 0 -- -- 53
2020-03-18 22:00:00 15.4 10 Este 20 Este 0 -- -- 47
2020-03-18 21:00:00 15.7 11 Este 17 Este 0 -- -- 48
2020-03-18 20:00:00 16.4 5 Nordeste 14 Noroeste 0 -- -- 56
2020-03-18 19:00:00 18.8 4 Oeste 18 Oeste 0 -- -- 49
2020-03-18 18:00:00 20.5 9 Oeste 22 Oeste 0 -- -- 45
2020-03-18 17:00:00 20.8 10 Oeste 18 Oeste 0 -- -- 43
2020-03-18 16:00:00 22 7 Nordeste 21 Sudeste 0 -- -- 38
2020-03-18 15:00:00 22.1 8 Sudeste 24 Sudeste 0 -- -- 37
2020-03-18 14:00:00 21.7 9 Este 24 Sudeste 0 -- -- 39
2020-03-18 13:00:00 20.5 8 Este 24 Sudeste 0 -- -- 42
2020-03-18 12:00:00 18.7 22 Sudeste 42 Sudeste 0 -- -- 47
2020-03-18 11:00:00 17.3 6 Nordeste 32 Este 0 -- -- 51
2020-03-18 10:00:00 15.6 18 Nordeste 39 Nordeste 0 -- -- 55
2020-03-18 09:00:00 13.7 16 Nordeste 40 Nordeste 0 -- -- 61
2020-03-18 08:00:00 13.2 19 Nordeste 49 Sudeste 0 -- -- 61
2020-03-18 07:00:00 13.7 37 Sudeste 53 Este 0 -- -- 60
2020-03-18 06:00:00 13.2 5 Noroeste 54 Sudeste 0 -- -- 63
2020-03-18 05:00:00 13.1 27 Sudeste 61 Este 0 -- -- 63
2020-03-18 04:00:00 13.6 28 Sudeste 54 Este 0 -- -- 62
2020-03-18 03:00:00 14.5 20 Sudeste 46 Sudeste 0 -- -- 60
2020-03-18 02:00:00 14.8 14 Sudeste 44 Sudeste 0 -- -- 61
2020-03-18 01:00:00 14.6 17 Sudeste 54 Sudeste 0 -- -- 63
2020-03-18 00:00:00 14 10 Oeste 35 Nordeste 0 -- -- 68
2020-03-17 23:00:00 13 4 Oeste 38 Sudeste 0 -- -- 68
2020-03-17 22:00:00 12.6 7 Noroeste 19 Sudeste 0 -- -- 72
2020-03-17 21:00:00 12.8 5 Oeste 21 Sudeste 0 -- -- 66
2020-03-17 20:00:00 13 3 Sudoeste 14 Norte 0 -- -- 51
2020-03-17 19:00:00 13.9 4 Noroeste 16 Nordeste 0 -- -- 44
2020-03-17 18:00:00 14.2 3 Noroeste 23 Sudeste 0 -- -- 41
2020-03-17 17:00:00 16.1 6 Sudeste 29 Sudeste 0 -- -- 37
2020-03-17 16:00:00 16 18 Sudeste 40 Sudeste 0 -- -- 38
2020-03-17 15:00:00 14.7 7 Nordeste 25 Nordeste 0 -- -- 41
2020-03-17 14:00:00 15.6 7 Nordeste 24 Norte 0 -- -- 41
2020-03-17 13:00:00 14.6 4 Sudeste 29 Sudeste 0 -- -- 41
2020-03-17 12:00:00 13.9 12 Sudeste 38 Sudeste 0 -- -- 43
2020-03-17 11:00:00 13 7 Sudeste 28 Sudeste 0 -- -- 49
2020-03-17 10:00:00 9.7 10 Sudeste 34 Este 0 -- -- 60
2020-03-17 09:00:00 7.6 9 Este 20 Este 0 -- -- 75
2020-03-17 08:00:00 6.8 10 Sudeste 16 Sudeste 0 -- -- 84
2020-03-17 07:00:00 6.4 10 Este 19 Este 0 -- -- 84
2020-03-17 06:00:00 5.9 8 Este 13 Este 0 -- -- 87
2020-03-17 05:00:00 6.2 10 Este 16 Este 0 -- -- 93
2020-03-17 04:00:00 6.3 11 Este 15 Sudeste 0 -- -- 92
2020-03-17 03:00:00 6 8 Este 13 Sudeste 0.1 -- -- 93
2020-03-17 02:00:00 6.2 0 Calma 17 Sudeste 0.2 -- -- 92
2020-03-17 01:00:00 6.7 6 Sur 17 Sudoeste 0 -- -- 82
2020-03-17 00:00:00 6.2 7 Noroeste 18 Oeste 0 -- -- 91
2020-03-16 23:00:00 6.3 7 Noroeste 12 Noroeste 0 -- -- 89
2020-03-16 22:00:00 6.4 0 Calma 8 Sudoeste 0 -- -- 85
2020-03-16 21:00:00 6.4 4 Noroeste 11 Oeste 0 -- -- 83
2020-03-16 20:00:00 6.3 0 Calma 7 Norte 0.5 -- -- 88
2020-03-16 19:00:00 6.8 5 Noroeste 17 Noroeste 0.1 -- -- 74
2020-03-16 18:00:00 7.8 9 Noroeste 24 Noroeste 0 -- -- 64
2020-03-16 17:00:00 8.2 12 Noroeste 22 Oeste 0 -- -- 58
2020-03-16 16:00:00 8.5 11 Oeste 26 Oeste 0 -- -- 56
2020-03-16 15:00:00 8.2 15 Oeste 28 Noroeste 0 -- -- 55
2020-03-16 14:00:00 8.4 10 Oeste 24 Noroeste 0 -- -- 55
2020-03-16 13:00:00 8.1 14 Oeste 28 Oeste 0 -- -- 56
2020-03-16 12:00:00 8 14 Oeste 42 Oeste 0 -- -- 58
2020-03-16 11:00:00 8.3 11 Oeste 23 Oeste 0 -- -- 64
2020-03-16 10:00:00 7 9 Oeste 20 Oeste 0 -- -- 79
2020-03-16 09:00:00 5.9 0 Calma 9 Noroeste 0 -- -- 93
2020-03-16 08:00:00 5.5 2 Noroeste 8 Sudoeste 0 -- -- 95
2020-03-16 07:00:00 5.4 2 Noroeste 16 Norte 0 -- -- 99
2020-03-16 06:00:00 5.7 3 Norte 23 Noroeste 2.9 -- -- 99
2020-03-16 05:00:00 7.5 14 Noroeste 28 Noroeste 0.7 -- -- 99
2020-03-16 04:00:00 8.8 8 Oeste 38 Oeste 4.9 -- -- 99
2020-03-16 03:00:00 11.8 18 Oeste 41 Oeste 0 -- -- 99
2020-03-16 02:00:00 11.9 18 Oeste 32 Oeste 0.6 -- -- 99
2020-03-16 01:00:00 12.4 18 Oeste 35 Oeste 0 -- -- 96
2020-03-16 00:00:00 13.7 16 Oeste 37 Oeste 0 -- -- 84
2020-03-15 23:00:00 14.8 18 Oeste 31 Noroeste 0 -- -- 68
2020-03-15 22:00:00 14.5 5 Nordeste 9 Oeste 0 -- -- 51
2020-03-15 21:00:00 15.3 0 Calma 13 Noroeste 0 -- -- 47
2020-03-15 20:00:00 15.3 5 Norte 12 Sudoeste 0 -- -- 47
2020-03-15 19:00:00 18.2 9 Sudoeste 17 Sudoeste 0 -- -- 45
2020-03-15 18:00:00 18.3 9 Oeste 23 Oeste 0 -- -- 45
2020-03-15 17:00:00 19.5 15 Oeste 25 Oeste 0 -- -- 45
2020-03-15 16:00:00 19.1 15 Oeste 25 Oeste 0 -- -- 54
2020-03-15 15:00:00 16.7 13 Noroeste 23 Noroeste 0 -- -- 65
2020-03-15 14:00:00 16.7 12 Oeste 19 Noroeste 0 -- -- 65
2020-03-15 13:00:00 16.8 6 Oeste 13 Oeste 0 -- -- 72
2020-03-15 12:00:00 15.5 4 Noroeste 10 Sudoeste 0 -- -- 81
2020-03-15 11:00:00 14.5 5 Noroeste 9 Oeste 0 -- -- 87
2020-03-15 10:00:00 13.9 0 Calma 4 Noroeste 0 -- -- 89
2020-03-15 09:00:00 13.1 0 Calma 4 Noroeste 0 -- -- 92
2020-03-15 08:00:00 12.8 0 Calma 17 Este 0 -- -- 93
2020-03-15 07:00:00 13 11 Este 15 Este 0 -- -- 95
2020-03-15 06:00:00 11.9 4 Norte 10 Noroeste 0 -- -- 90
2020-03-15 05:00:00 14 0 Calma 4 Norte 0 -- -- 85
2020-03-15 04:00:00 13.8 0 Calma 6 Norte 0 -- -- 84
2020-03-15 03:00:00 13.7 0 Calma 10 Norte 0 -- -- 85
2020-03-15 02:00:00 13.9 4 Norte 9 Noroeste 0 -- -- 84
2020-03-15 01:00:00 14.5 6 Noroeste 12 Norte 0 -- -- 80
2020-03-15 00:00:00 15 6 Norte 12 Noroeste 0 -- -- 74
2020-03-14 23:00:00 15.7 0 Calma 3 Nordeste 0 -- -- 72
2020-03-14 22:00:00 16 0 Calma 8 Noroeste 0 -- -- 68
2020-03-14 21:00:00 16.6 5 Noroeste 8 Noroeste 0 -- -- 64
2020-03-14 20:00:00 17.7 0 Calma 10 Noroeste 0 -- -- 55
2020-03-14 19:00:00 19.6 7 Noroeste 12 Noroeste 0 -- -- 50
2020-03-14 18:00:00 21.1 8 Noroeste 18 Noroeste 0 -- -- 48
2020-03-14 17:00:00 21.5 6 Noroeste 21 Noroeste 0 -- -- 45
2020-03-14 16:00:00 20.2 11 Noroeste 24 Oeste 0 -- -- 50
2020-03-14 15:00:00 18.9 5 Norte 19 Noroeste 0 -- -- 59
2020-03-14 14:00:00 19.4 9 Noroeste 17 Oeste 0 -- -- 61
2020-03-14 13:00:00 17.9 8 Oeste 15 Noroeste 0 -- -- 68
2020-03-14 12:00:00 16.8 6 Noroeste 14 Oeste 0 -- -- 77
2020-03-14 11:00:00 15.5 6 Noroeste 14 Noroeste 0 -- -- 82
2020-03-14 10:00:00 15 0 Calma -- -- 0 -- -- 87
2020-03-14 09:00:00 13.7 0 Calma 4 Este 0 -- -- 93
2020-03-14 08:00:00 12.7 2 Noroeste 9 Noroeste 0 -- -- 95
2020-03-14 07:00:00 12.7 3 Noroeste 8 Norte 0 -- -- 99
2020-03-14 06:00:00 12.9 0 Calma 4 Noroeste 0 -- -- 98
2020-03-14 05:00:00 12.9 4 Noroeste 6 Noroeste 0 -- -- 98
2020-03-14 04:00:00 12.7 4 Noroeste 8 Noroeste 0 -- -- 98
2020-03-14 03:00:00 13.2 3 Norte 6 Noroeste 0 -- -- 97
2020-03-14 02:00:00 13.8 0 Calma 14 Norte 0 -- -- 92
2020-03-14 01:00:00 14.3 6 Norte 14 Norte 0 -- -- 87
2020-03-14 00:00:00 15 5 Noroeste 17 Noroeste 0 -- -- 82
2020-03-13 23:00:00 15.3 7 Noroeste 17 Noroeste 0 -- -- 76
2020-03-13 22:00:00 15.8 6 Oeste 23 Noroeste 0 -- -- 65
2020-03-13 21:00:00 16.3 10 Noroeste 16 Noroeste 0 -- -- 63
2020-03-13 20:00:00 16.3 6 Noroeste 20 Oeste 0 -- -- 59
2020-03-13 19:00:00 18.7 12 Oeste 24 Oeste 0 -- -- 50
2020-03-13 18:00:00 20 15 Oeste 26 Oeste 0 -- -- 42
2020-03-13 17:00:00 20.2 17 Noroeste 28 Oeste 0 -- -- 42
2020-03-13 16:00:00 20.4 15 Oeste 26 Noroeste 0 -- -- 45
2020-03-13 15:00:00 20.1 13 Oeste 23 Oeste 0 -- -- 49
2020-03-13 14:00:00 20.1 9 Noroeste 21 Noroeste 0 -- -- 56
2020-03-13 13:00:00 19.3 10 Noroeste 17 Oeste 0 -- -- 56
2020-03-13 12:00:00 18.1 6 Noroeste 14 Oeste 0 -- -- 57
2020-03-13 11:00:00 17.2 6 Noroeste 14 Oeste 0 -- -- 55
2020-03-13 10:00:00 15.6 2 Oeste 6 Noroeste 0 -- -- 54
2020-03-13 09:00:00 14.9 4 Noroeste 5 Noroeste 0 -- -- 53
2020-03-13 08:00:00 14.7 0 Calma 4 Este 0 -- -- 51
2020-03-13 07:00:00 14.8 2 Este 10 Noroeste 0 -- -- 51
2020-03-13 06:00:00 15.7 2 Norte 6 Este 0 -- -- 45
2020-03-13 05:00:00 15.6 5 Este 8 Este 0 -- -- 46
2020-03-13 04:00:00 16.5 0 Calma 4 Nordeste 0 -- -- 46
2020-03-13 03:00:00 16 2 Norte 8 Norte 0 -- -- 52
2020-03-13 02:00:00 14.7 5 Norte 10 Norte 0 -- -- 63
2020-03-13 01:00:00 15 3 Noroeste 10 Norte 0 -- -- 69
2020-03-13 00:00:00 15.5 5 Noroeste 12 Norte 0 -- -- 67
2020-03-12 23:00:00 16.8 4 Noroeste 12 Oeste 0 -- -- 55
2020-03-12 22:00:00 17.4 10 Oeste 17 Oeste 0 -- -- 61
2020-03-12 21:00:00 18.2 9 Noroeste 16 Noroeste 0 -- -- 53
2020-03-12 20:00:00 19.3 10 Oeste 17 Oeste 0 -- -- 46
2020-03-12 19:00:00 21.8 12 Oeste 25 Oeste 0 -- -- 38
2020-03-12 18:00:00 24.2 18 Oeste 27 Oeste 0 -- -- 34
2020-03-12 17:00:00 25.7 14 Oeste 27 Noroeste 0 -- -- 31
2020-03-12 16:00:00 26.3 14 Oeste 22 Noroeste 0 -- -- 30
2020-03-12 15:00:00 25.9 12 Noroeste 24 Noroeste 0 -- -- 31
2020-03-12 14:00:00 25.5 4 Oeste 17 Noroeste 0 -- -- 32
2020-03-12 13:00:00 24.2 6 Oeste 11 Oeste 0 -- -- 34
2020-03-12 12:00:00 22.8 5 Noroeste 10 Noroeste 0 -- -- 34
2020-03-12 11:00:00 21.3 3 Sudoeste 7 Sudoeste 0 -- -- 34
2020-03-12 10:00:00 20 3 Oeste 13 Oeste 0 -- -- 36
2020-03-12 09:00:00 20.2 5 Norte 10 Noroeste 0 -- -- 34
2020-03-12 08:00:00 18.9 2 Norte 8 Noroeste 0 -- -- 35
2020-03-12 07:00:00 17.7 2 Norte 14 Sudeste 0 -- -- 36
2020-03-12 06:00:00 20 10 Este 18 Sudeste 0 -- -- 30
2020-03-12 05:00:00 21.2 0 Calma 19 Sudeste 0 -- -- 28
2020-03-12 04:00:00 22.1 9 Sudeste 25 Sudeste 0 -- -- 27
2020-03-12 03:00:00 22.8 3 Sudeste 30 Sudeste 0 -- -- 28
2020-03-12 02:00:00 22.5 6 Sudeste 25 Sudeste 0 -- -- 28
2020-03-12 01:00:00 21.8 13 Este 24 Sudeste 0 -- -- 32
2020-03-12 00:00:00 20.5 18 Sudeste 21 Sudeste 0 -- -- 36
2020-03-11 23:00:00 21 15 Este 18 Sudeste 0 -- -- 37
2020-03-11 22:00:00 20.5 15 Este 18 Este 0 -- -- 37
2020-03-11 21:00:00 22.1 3 Norte 9 Sudeste 0 -- -- 36
2020-03-11 20:00:00 20.5 6 Este 10 Sudeste 0 -- -- 40
2020-03-11 19:00:00 23.8 0 Calma 6 Nordeste 0 -- -- 37
2020-03-11 18:00:00 24.2 5 Noroeste 13 Noroeste 0 -- -- 35
2020-03-11 17:00:00 25.1 8 Noroeste 17 Norte 0 -- -- 34
2020-03-11 16:00:00 26.3 9 Noroeste 20 Norte 0 -- -- 32
2020-03-11 15:00:00 27.1 11 Noroeste 24 Noroeste 0 -- -- 31
2020-03-11 14:00:00 26.1 9 Oeste 15 Oeste 0 -- -- 33
2020-03-11 13:00:00 25.2 5 Noroeste 13 Noroeste 0 -- -- 34
2020-03-11 12:00:00 23.4 6 Oeste 12 Oeste 0 -- -- 35
2020-03-11 11:00:00 22.8 5 Noroeste 10 Noroeste 0 -- -- 36
2020-03-11 10:00:00 21.4 3 Oeste 10 Este 0 -- -- 36
2020-03-11 09:00:00 19.2 0 Calma 6 Norte 0 -- -- 38
2020-03-11 08:00:00 18 3 Este 16 Este 0 -- -- 37
2020-03-11 07:00:00 17.9 2 Este 6 Norte 0 -- -- 39
2020-03-11 06:00:00 16.8 3 Nordeste 25 Sudeste 0 -- -- 40
2020-03-11 05:00:00 17.9 20 Sudeste 29 Sudeste 0 -- -- 39
2020-03-11 04:00:00 17.1 14 Sudeste 17 Sudeste 0 -- -- 39
2020-03-11 03:00:00 17.9 10 Este 14 Sudeste 0 -- -- 39
2020-03-11 02:00:00 16.9 9 Este 10 Este 0 -- -- 40
2020-03-11 01:00:00 18.3 7 Este 16 Este 0 -- -- 38
2020-03-11 00:00:00 17.7 8 Este 12 Sudeste 0 -- -- 38
2020-03-10 23:00:00 18.7 6 Este 12 Este 0 -- -- 37
2020-03-10 22:00:00 18.4 10 Sudeste 14 Sudeste 0 -- -- 37
2020-03-10 21:00:00 18.6 11 Sudeste 14 Este 0 -- -- 38
2020-03-10 20:00:00 19.2 10 Sudeste 15 Sudeste 0 -- -- 37
2020-03-10 19:00:00 22.1 6 Sudeste 13 Sudeste 0 -- -- 34
2020-03-10 18:00:00 24 4 Nordeste 18 Nordeste 0 -- -- 32
2020-03-10 17:00:00 24.5 4 Este 15 Nordeste 0 -- -- 32
2020-03-10 16:00:00 23.7 5 Norte 18 Noroeste 0 -- -- 33
2020-03-10 15:00:00 22.8 6 Noroeste 20 Noroeste 0 -- -- 35
2020-03-10 14:00:00 20.9 9 Noroeste 19 Oeste 0 -- -- 37
2020-03-10 13:00:00 19.9 6 Noroeste 14 Noroeste 0 -- -- 40
2020-03-10 12:00:00 18.5 6 Oeste 14 Noroeste 0 -- -- 41
2020-03-10 11:00:00 17.7 4 Oeste 21 Sudeste 0 -- -- 42
2020-03-10 10:00:00 17.2 12 Sudeste 32 Este 0 -- -- 41
2020-03-10 09:00:00 14 6 Sur 23 Sudeste 0 -- -- 44
2020-03-10 08:00:00 12.6 3 Oeste 31 Sudeste 0 -- -- 45
2020-03-10 07:00:00 11.8 3 Sudoeste 15 Oeste 0 -- -- 47
2020-03-10 06:00:00 11.8 3 Noroeste 17 Noroeste 0 -- -- 47
2020-03-10 05:00:00 13 4 Noroeste 15 Este 0 -- -- 47
2020-03-10 04:00:00 13.7 2 Sudeste 17 Sur 0 -- -- 45
2020-03-10 03:00:00 13.4 7 Sur 24 Sudeste 0 -- -- 49
2020-03-10 02:00:00 13.7 9 Sur 21 Sur 0 -- -- 49
2020-03-10 01:00:00 13.2 8 Sudeste 16 Sudeste 0 -- -- 50
2020-03-10 00:00:00 13.5 6 Este 12 Este 0 -- -- 48
2020-03-09 23:00:00 14.1 6 Nordeste 12 Norte 0 -- -- 47
2020-03-09 22:00:00 15.5 0 Calma 8 Este 0 -- -- 43
2020-03-09 21:00:00 15.3 0 Calma 8 Nordeste 0 -- -- 41
2020-03-09 20:00:00 15.2 2 Este 6 Nordeste 0 -- -- 41
2020-03-09 19:00:00 16.9 6 Noroeste 15 Noroeste 0 -- -- 38
2020-03-09 18:00:00 18.9 8 Noroeste 16 Noroeste 0 -- -- 33
2020-03-09 17:00:00 19 8 Noroeste 22 Noroeste 0 -- -- 36
2020-03-09 16:00:00 19 9 Noroeste 19 Noroeste 0 -- -- 41
2020-03-09 15:00:00 18 8 Noroeste 22 Noroeste 0 -- -- 46
2020-03-09 14:00:00 17.3 9 Noroeste 19 Norte 0 -- -- 50
2020-03-09 13:00:00 16.6 9 Noroeste 15 Oeste 0 -- -- 54
2020-03-09 12:00:00 15.2 6 Oeste 15 Noroeste 0 -- -- 59
2020-03-09 11:00:00 13.6 5 Noroeste 15 Noroeste 0 -- -- 64
2020-03-09 10:00:00 12.7 5 Noroeste 9 Norte 0 -- -- 67
2020-03-09 09:00:00 11.5 4 Nordeste 15 Norte 0 -- -- 71
2020-03-09 08:00:00 10.8 5 Norte 8 Norte 0 -- -- 68
2020-03-09 07:00:00 10.5 0 Calma 9 Nordeste 0 -- -- 69
2020-03-09 06:00:00 11.2 2 Sudeste 10 Nordeste 0 -- -- 61
2020-03-09 05:00:00 11.1 4 Este 8 Sudeste 0 -- -- 58
2020-03-09 04:00:00 12.1 0 Calma 7 Nordeste 0 -- -- 48
2020-03-09 03:00:00 11.8 2 Sudeste 12 Este 0 -- -- 45
2020-03-09 02:00:00 12.1 7 Este 12 Este 0 -- -- 43
2020-03-09 01:00:00 13.4 3 Nordeste 8 Nordeste 0 -- -- 39
2020-03-09 00:00:00 14.3 3 Noroeste 13 Noroeste 0 -- -- 37
2020-03-08 23:00:00 14.9 7 Noroeste 11 Noroeste 0 -- -- 36
2020-03-08 22:00:00 15.6 6 Noroeste 9 Noroeste 0 -- -- 34
2020-03-08 21:00:00 15.9 2 Noroeste 6 Oeste 0 -- -- 31
2020-03-08 20:00:00 15.7 4 Noroeste 8 Noroeste 0 -- -- 30
2020-03-08 19:00:00 17.1 3 Noroeste 20 Noroeste 0 -- -- 28
2020-03-08 18:00:00 19.6 14 Noroeste 22 Noroeste 0 -- -- 23
2020-03-08 17:00:00 20.7 9 Oeste 19 Noroeste 0 -- -- 27
2020-03-08 16:00:00 19.9 11 Noroeste 21 Oeste 0 -- -- 30
2020-03-08 15:00:00 20.2 8 Noroeste 20 Noroeste 0 -- -- 30
2020-03-08 14:00:00 18.4 10 Noroeste 19 Noroeste 0 -- -- 34
2020-03-08 13:00:00 19.1 5 Sudeste 18 Este 0 -- -- 32
2020-03-08 12:00:00 18.2 4 Este 21 Sudeste 0 -- -- 37
2020-03-08 11:00:00 16.1 10 Sudeste 23 Sudeste 0 -- -- 39
2020-03-08 10:00:00 15.1 5 Este 21 Este 0 -- -- 42
2020-03-08 09:00:00 12.8 15 Sudeste 23 Sudeste 0 -- -- 46
2020-03-08 08:00:00 9.8 9 Sudeste 19 Sudeste 0 -- -- 49
2020-03-08 07:00:00 10.3 14 Este 22 Este 0 -- -- 47
2020-03-08 06:00:00 10.2 10 Este 17 Este 0 -- -- 48
2020-03-08 05:00:00 10.7 4 Sudeste 17 Sudeste 0 -- -- 46
2020-03-08 04:00:00 10.3 12 Sudeste 19 Sudeste 0 -- -- 47
2020-03-08 03:00:00 10.9 3 Sudeste 13 Sudeste 0 -- -- 44
2020-03-08 02:00:00 11 8 Sudeste 18 Sur 0 -- -- 43
2020-03-08 01:00:00 11.8 11 Sudeste 22 Sudeste 0 -- -- 42
2020-03-08 00:00:00 12 8 Sudeste 22 Sudeste 0 -- -- 41
2020-03-07 23:00:00 12 5 Sur 22 Sudeste 0 -- -- 40
2020-03-07 22:00:00 12.2 10 Sudeste 19 Sur 0 -- -- 39
2020-03-07 21:00:00 12.5 9 Sudeste 26 Sudeste 0 -- -- 38
2020-03-07 20:00:00 12.4 14 Sudeste 23 Sudeste 0 -- -- 38
2020-03-07 19:00:00 14.7 0 Calma 16 Oeste 0 -- -- 34
2020-03-07 18:00:00 15.5 7 Nordeste 27 Este 0 -- -- 34
2020-03-07 17:00:00 15.4 11 Nordeste 31 Nordeste 0 -- -- 33
2020-03-07 16:00:00 15.2 12 Nordeste 33 Este 0 -- -- 33
2020-03-07 15:00:00 14.3 7 Nordeste 32 Este 0 -- -- 34
2020-03-07 14:00:00 15.1 5 Este 35 Este 0 -- -- 35
2020-03-07 13:00:00 13.9 16 Nordeste 37 Nordeste 0 -- -- 36
2020-03-07 12:00:00 13.5 8 Nordeste 33 Nordeste 0 -- -- 37
2020-03-07 11:00:00 11.4 2 Oeste 41 Sudeste 0 -- -- 38
2020-03-07 10:00:00 10.8 17 Sudeste 32 Sur 0 -- -- 39
2020-03-07 09:00:00 9.6 13 Sudeste 38 Sudeste 0 -- -- 44
2020-03-07 08:00:00 8.3 16 Sudeste 33 Sudeste 0 -- -- 52
2020-03-07 07:00:00 7.3 13 Sudeste 23 Sudeste 0 -- -- 60
2020-03-07 06:00:00 6.8 8 Este 12 Este 0 -- -- 60
2020-03-07 05:00:00 7 9 Este 12 Este 0 -- -- 58
2020-03-07 04:00:00 7.1 8 Este 12 Sudeste 0 -- -- 57
2020-03-07 03:00:00 8.3 8 Norte 11 Norte 0 -- -- 53
2020-03-07 02:00:00 8.6 4 Este 9 Este 0 -- -- 51
2020-03-07 01:00:00 8.8 0 Calma 10 Noroeste 0 -- -- 49
2020-03-07 00:00:00 9.9 0 Calma 9 Norte 0 -- -- 47
2020-03-06 23:00:00 10 4 Norte 13 Norte 0 -- -- 46
2020-03-06 22:00:00 10.6 9 Norte 19 Este 0 -- -- 44
2020-03-06 21:00:00 10.8 4 Norte 17 Noroeste 0 -- -- 43
2020-03-06 20:00:00 11.4 5 Norte 22 Norte 0 -- -- 43
2020-03-06 19:00:00 13 10 Norte 29 Norte 0 -- -- 39
2020-03-06 18:00:00 14.6 14 Noroeste 31 Norte 0 -- -- 38
2020-03-06 17:00:00 14.3 16 Noroeste 35 Noroeste 0 -- -- 41
2020-03-06 16:00:00 12.9 17 Noroeste 36 Noroeste 0 -- -- 48
2020-03-06 15:00:00 12.9 19 Oeste 36 Oeste 0 -- -- 50
2020-03-06 14:00:00 12.7 21 Noroeste 33 Noroeste 0 -- -- 52
2020-03-06 13:00:00 12 21 Noroeste 36 Noroeste 0 -- -- 61
2020-03-06 12:00:00 10.8 20 Oeste 35 Noroeste 0 -- -- 76
2020-03-06 11:00:00 9.2 17 Noroeste 31 Oeste 0 -- -- 85
2020-03-06 10:00:00 8.4 11 Oeste 18 Oeste 0 -- -- 88
2020-03-06 09:00:00 7.2 8 Oeste 16 Oeste 0 -- -- 97
2020-03-06 08:00:00 6.4 5 Noroeste 13 Noroeste 0 -- -- 97
2020-03-06 07:00:00 6.2 6 Noroeste 16 Noroeste 0 -- -- 98
2020-03-06 06:00:00 6.1 7 Noroeste 14 Noroeste 0 -- -- 98
2020-03-06 05:00:00 6.4 6 Noroeste 13 Noroeste 0 -- -- 95
2020-03-06 04:00:00 6.7 3 Noroeste 10 Noroeste 0 -- -- 90
2020-03-06 03:00:00 7.4 3 Noroeste 21 Noroeste 0 -- -- 83
2020-03-06 02:00:00 8.3 10 Noroeste 20 Noroeste 0 -- -- 76
2020-03-06 01:00:00 9.2 9 Noroeste 24 Noroeste 0 -- -- 71
2020-03-06 00:00:00 9.9 13 Noroeste 28 Noroeste 0 -- -- 66
2020-03-05 23:00:00 10.2 7 Noroeste 26 Noroeste 0 -- -- 64
2020-03-05 22:00:00 11.2 12 Noroeste 27 Noroeste 0 -- -- 60
2020-03-05 21:00:00 11.8 12 Noroeste 27 Oeste 0 -- -- 61
2020-03-05 20:00:00 11.7 6 Oeste 23 Oeste 0 -- -- 76
2020-03-05 19:00:00 12.9 12 Noroeste 26 Noroeste 0 -- -- 89
2020-03-05 18:00:00 12.8 13 Oeste 30 Oeste 0 -- -- 89
2020-03-05 17:00:00 12.6 17 Oeste 32 Oeste 0 -- -- 99
2020-03-05 16:00:00 11.4 19 Oeste 33 Oeste 0 -- -- 99
2020-03-05 15:00:00 11.3 19 Oeste 36 Oeste 0 -- -- 99
2020-03-05 14:00:00 12.2 23 Oeste 40 Oeste 0 -- -- 84
2020-03-05 13:00:00 13.3 21 Oeste 42 Sudoeste 0 -- -- 74
2020-03-05 12:00:00 14.3 21 Oeste 38 Oeste 0 -- -- 71
2020-03-05 11:00:00 13.6 18 Noroeste 27 Oeste 0 -- -- 70
2020-03-05 10:00:00 12.2 12 Noroeste 23 Oeste 0 -- -- 85
2020-03-05 09:00:00 10.2 6 Noroeste 18 Noroeste 0 -- -- 97
2020-03-05 08:00:00 10 8 Norte 13 Noroeste 0 -- -- 80
2020-03-05 07:00:00 11.5 0 Calma 4 Noroeste 0 -- -- 66
2020-03-05 06:00:00 11.5 0 Calma 3 Sudeste 0 -- -- 66
2020-03-05 05:00:00 11.7 0 Calma 5 Este 0 -- -- 66
2020-03-05 04:00:00 12.1 0 Calma 4 Norte 0 -- -- 63
2020-03-05 03:00:00 11.7 0 Calma 6 Este 0 -- -- 65
2020-03-05 02:00:00 11.6 0 Calma 0 Calma 0 -- -- 66
2020-03-05 01:00:00 11.7 0 Calma 4 Norte 0 -- -- 65
2020-03-05 00:00:00 12.1 3 Este 6 Este 0 -- -- 63
2020-03-04 23:00:00 12.7 0 Calma 6 Este 0 -- -- 61
2020-03-04 22:00:00 12.9 0 Calma 11 Norte 0 -- -- 61
2020-03-04 21:00:00 13.7 3 Norte 8 Norte 0 -- -- 57
2020-03-04 20:00:00 14.2 0 Calma 11 Noroeste 0 -- -- 55
2020-03-04 19:00:00 16 8 Noroeste 21 Oeste 0 -- -- 49
2020-03-04 18:00:00 17.6 13 Noroeste 26 Oeste 0 -- -- 46
2020-03-04 17:00:00 17.8 8 Noroeste 23 Noroeste 0 -- -- 48
2020-03-04 16:00:00 17.6 11 Noroeste 22 Oeste 0 -- -- 49
2020-03-04 15:00:00 15.7 11 Noroeste 30 Noroeste 0 -- -- 55
2020-03-04 14:00:00 16.6 13 Noroeste 23 Noroeste 0 -- -- 53
2020-03-04 13:00:00 16.5 9 Oeste 20 Oeste 0 -- -- 53
2020-03-04 12:00:00 15.6 7 Oeste 17 Noroeste 0 -- -- 59
2020-03-04 11:00:00 12.9 10 Noroeste 17 Noroeste 0 -- -- 99
2020-03-04 10:00:00 11.8 5 Sudoeste 14 Noroeste 0 -- -- 99
2020-03-04 09:00:00 11.9 8 Oeste 13 Noroeste 0 -- -- 99
2020-03-04 08:00:00 11.9 6 Oeste 12 Noroeste 0 -- -- 99
2020-03-04 07:00:00 11.8 6 Noroeste 10 Noroeste 0 -- -- 99
2020-03-04 06:00:00 11.8 4 Noroeste 10 Noroeste 0 -- -- 99
2020-03-04 05:00:00 11.9 4 Noroeste 9 Oeste 0 -- -- 99
2020-03-04 04:00:00 11.9 5 Noroeste 18 Oeste 0 -- -- 99
2020-03-04 03:00:00 11.8 8 Oeste 17 Oeste 0 -- -- 99
2020-03-04 02:00:00 11.8 9 Oeste 18 Oeste 0 -- -- 99
2020-03-04 01:00:00 11.8 8 Oeste 17 Oeste 0 -- -- 99
2020-03-04 00:00:00 11.6 9 Oeste 30 Sudoeste 0 -- -- 99
2020-03-03 23:00:00 11.8 11 Oeste 26 Oeste 0 -- -- 93
2020-03-03 22:00:00 12.2 13 Oeste 25 Oeste 0 -- -- 89
2020-03-03 21:00:00 12.3 12 Noroeste 27 Oeste 0 -- -- 85
2020-03-03 20:00:00 12.7 16 Oeste 31 Oeste 0 -- -- 78
2020-03-03 19:00:00 13 16 Oeste 31 Oeste 0 -- -- 74
2020-03-03 18:00:00 13.1 18 Oeste 31 Oeste 0 -- -- 69
2020-03-03 17:00:00 13.1 18 Oeste 29 Noroeste 0 -- -- 64
2020-03-03 16:00:00 13.3 17 Oeste 35 Noroeste 0 -- -- 56
2020-03-03 15:00:00 14.3 19 Oeste 36 Oeste 0 -- -- 52
2020-03-03 14:00:00 13.3 20 Oeste 31 Oeste 0 -- -- 52
2020-03-03 13:00:00 12.3 14 Oeste 27 Oeste 0 -- -- 52
2020-03-03 12:00:00 11 14 Noroeste 26 Oeste 0 -- -- 65
2020-03-03 11:00:00 10.4 17 Oeste 30 Oeste 0 -- -- 68
2020-03-03 10:00:00 9.5 12 Oeste 19 Noroeste 0 -- -- 82
2020-03-03 09:00:00 7.8 9 Noroeste 17 Noroeste 0 -- -- 82
2020-03-03 08:00:00 7.6 5 Noroeste 16 Noroeste 0 -- -- 81
2020-03-03 07:00:00 8.1 8 Noroeste 13 Noroeste 0 -- -- 80
2020-03-03 06:00:00 7.6 0 Calma 8 Noroeste 0 -- -- 82
2020-03-03 05:00:00 7.5 0 Calma 8 Noroeste 0 -- -- 80
2020-03-03 04:00:00 7.7 4 Noroeste 10 Oeste 0 -- -- 76
2020-03-03 03:00:00 8.3 0 Calma 8 Oeste 0 -- -- 71
2020-03-03 02:00:00 8.9 2 Noroeste 7 Sudoeste 0 -- -- 68
2020-03-03 01:00:00 9 0 Calma 10 Oeste 0 -- -- 66
2020-03-03 00:00:00 9.7 6 Oeste 14 Noroeste 0 -- -- 63
2020-03-02 23:00:00 10.2 2 Noroeste 16 Oeste 0 -- -- 60
2020-03-02 22:00:00 10.8 4 Noroeste 15 Noroeste 0 -- -- 58
2020-03-02 21:00:00 11.3 5 Noroeste 19 Noroeste 0 -- -- 56
2020-03-02 20:00:00 11.9 11 Noroeste 27 Oeste 0 -- -- 53
2020-03-02 19:00:00 13 17 Noroeste 36 Noroeste 0 -- -- 49
2020-03-02 18:00:00 14.1 17 Noroeste 54 Oeste 0 -- -- 47
2020-03-02 17:00:00 14.7 28 Noroeste 58 Oeste 0 -- -- 44
2020-03-02 16:00:00 15.9 33 Oeste 71 Oeste 0 -- -- 45
2020-03-02 15:00:00 16 35 Oeste 66 Oeste 0 -- -- 57
2020-03-02 14:00:00 15.1 33 Oeste 65 Oeste 0 -- -- 66
2020-03-02 13:00:00 15.1 34 Oeste 63 Oeste 0 -- -- 76
2020-03-02 12:00:00 12.6 38 Oeste 66 Oeste 0.7 -- -- 99
2020-03-02 11:00:00 12.3 32 Oeste 60 Noroeste 0 -- -- 99
2020-03-02 10:00:00 12.2 34 Oeste 51 Oeste 0.7 -- -- 99
2020-03-02 09:00:00 12 28 Oeste 61 Oeste 0.5 -- -- 99
2020-03-02 08:00:00 11.8 36 Oeste 61 Noroeste 0.2 -- -- 99
2020-03-02 07:00:00 11.8 29 Oeste 55 Oeste 1 -- -- 99
2020-03-02 06:00:00 11.9 35 Oeste 63 Noroeste 0.5 -- -- 99
2020-03-02 05:00:00 11.8 33 Oeste 55 Oeste 0.5 -- -- 99
2020-03-02 04:00:00 12.1 30 Oeste 52 Noroeste 0 -- -- 98
2020-03-02 03:00:00 11.9 33 Oeste 58 Oeste 0 -- -- 99
2020-03-02 02:00:00 11.8 33 Oeste 54 Oeste 0.3 -- -- 99
2020-03-02 01:00:00 11.7 26 Oeste 46 Oeste 0 -- -- 99
2020-03-02 00:00:00 12 24 Oeste 47 Oeste 0 -- -- 95
2020-03-01 23:00:00 12.9 23 Oeste 46 Oeste 0 -- -- 87
2020-03-01 22:00:00 13.2 26 Oeste 42 Oeste 0 -- -- 84
2020-03-01 21:00:00 12.5 20 Oeste 35 Oeste 0 -- -- 91
2020-03-01 20:00:00 13.1 21 Oeste 31 Oeste 0 -- -- 79
2020-03-01 19:00:00 13.5 17 Oeste 29 Oeste 0 -- -- 71
2020-03-01 18:00:00 13.6 18 Oeste 34 Noroeste 0 -- -- 63
2020-03-01 17:00:00 14.1 18 Oeste 32 Oeste 0 -- -- 59
2020-03-01 16:00:00 15.3 23 Oeste 44 Oeste 0 -- -- 52
2020-03-01 15:00:00 15.4 19 Oeste 37 Oeste 0 -- -- 53
2020-03-01 14:00:00 14 22 Oeste 40 Oeste 0 -- -- 63
2020-03-01 13:00:00 13.5 21 Oeste 40 Oeste 0 -- -- 72
2020-03-01 12:00:00 12 17 Oeste 29 Oeste 0 -- -- 79
2020-03-01 11:00:00 11.4 17 Oeste 32 Oeste 0 -- -- 86
2020-03-01 10:00:00 10.9 20 Oeste 34 Sudoeste 0 -- -- 89
2020-03-01 09:00:00 10.4 12 Noroeste 24 Oeste 0 -- -- 99
2020-03-01 08:00:00 9.7 13 Oeste 23 Oeste 0 -- -- 99
2020-03-01 07:00:00 9.9 15 Oeste 26 Oeste 0 -- -- 99
2020-03-01 06:00:00 10 19 Oeste 33 Oeste 0 -- -- 99
2020-03-01 05:00:00 10.5 22 Oeste 36 Oeste 0 -- -- 99
2020-03-01 04:00:00 11 24 Oeste 39 Noroeste 0 -- -- 99
2020-03-01 03:00:00 11.5 20 Oeste 36 Oeste 0 -- -- 99
2020-03-01 02:00:00 11.6 19 Oeste 30 Oeste 0.1 -- -- 99
2020-03-01 01:00:00 11.6 15 Oeste 36 Oeste 0.6 -- -- 99
2020-03-01 00:00:00 11.6 16 Noroeste 30 Oeste 0.6 -- -- 99
2020-02-29 23:00:00 11.5 20 Oeste 35 Oeste 0.6 -- -- 99
2020-02-29 22:00:00 11.5 18 Oeste 37 Oeste 0.4 -- -- 99
2020-02-29 21:00:00 11.4 21 Oeste 33 Oeste 0.1 -- -- 99
2020-02-29 20:00:00 11.5 18 Oeste 35 Oeste 0 -- -- 99
2020-02-29 19:00:00 12.4 14 Oeste 32 Noroeste 0 -- -- 84
2020-02-29 18:00:00 12.5 19 Oeste 37 Oeste 0 -- -- 77
2020-02-29 17:00:00 12.6 18 Oeste 37 Noroeste 0 -- -- 71
2020-02-29 16:00:00 13.8 24 Oeste 41 Noroeste 0 -- -- 68
2020-02-29 15:00:00 13.5 23 Noroeste 38 Oeste 0 -- -- 68
2020-02-29 14:00:00 13.2 23 Oeste 38 Noroeste 0 -- -- 71
2020-02-29 13:00:00 13.2 20 Noroeste 39 Noroeste 0 -- -- 73
2020-02-29 12:00:00 11.8 24 Noroeste 39 Noroeste 0 -- -- 80
2020-02-29 11:00:00 11.5 19 Noroeste 35 Oeste 0 -- -- 82
2020-02-29 10:00:00 10.8 14 Noroeste 24 Oeste 0 -- -- 97
2020-02-29 09:00:00 9.7 15 Noroeste 26 Noroeste 0 -- -- 99
2020-02-29 08:00:00 9.6 14 Noroeste 34 Oeste 0 -- -- 95
2020-02-29 07:00:00 11.6 17 Noroeste 35 Noroeste 0 -- -- 64
2020-02-29 06:00:00 10.9 14 Noroeste 36 Noroeste 0 -- -- 74
2020-02-29 05:00:00 11.1 19 Oeste 34 Oeste 0 -- -- 74
2020-02-29 04:00:00 10.4 15 Noroeste 28 Oeste 0 -- -- 81
2020-02-29 03:00:00 10.9 14 Noroeste 24 Oeste 0 -- -- 84
2020-02-29 02:00:00 10.7 6 Noroeste 20 Noroeste 0 -- -- 85
2020-02-29 01:00:00 11.3 8 Noroeste 17 Oeste 0 -- -- 72
2020-02-29 00:00:00 12.7 10 Noroeste 21 Norte 0 -- -- 42
2020-02-28 23:00:00 13.3 4 Noroeste 20 Noroeste 0 -- -- 39
2020-02-28 22:00:00 14.7 4 Noroeste 14 Sudeste 0 -- -- 35
2020-02-28 21:00:00 15.2 8 Noroeste 15 Norte 0 -- -- 35
2020-02-28 20:00:00 16.4 6 Noroeste 17 Oeste 0 -- -- 32
2020-02-28 19:00:00 19 7 Sudoeste 20 Oeste 0 -- -- 29
2020-02-28 18:00:00 20.1 12 Oeste 22 Oeste 0 -- -- 27
2020-02-28 17:00:00 21.6 15 Oeste 26 Noroeste 0 -- -- 25
2020-02-28 16:00:00 22.1 15 Noroeste 26 Noroeste 0 -- -- 27
2020-02-28 15:00:00 22 10 Noroeste 21 Noroeste 0 -- -- 32
2020-02-28 14:00:00 21 7 Noroeste 17 Noroeste 0 -- -- 35
2020-02-28 13:00:00 20.2 8 Noroeste 16 Noroeste 0 -- -- 35
2020-02-28 12:00:00 19.6 5 Oeste 12 Oeste 0 -- -- 31
2020-02-28 11:00:00 18.8 2 Oeste 7 Oeste 0 -- -- 34
2020-02-28 10:00:00 18.2 6 Este 20 Este 0 -- -- 36
2020-02-28 09:00:00 14.6 16 Este 23 Sudeste 0 -- -- 41
2020-02-28 08:00:00 13.1 18 Este 26 Este 0 -- -- 43
2020-02-28 07:00:00 13.2 11 Este 15 Este 0 -- -- 45
2020-02-28 06:00:00 13.4 11 Este 25 Sudeste 0 -- -- 47
2020-02-28 05:00:00 12.5 13 Sudeste 19 Sudeste 0 -- -- 52
2020-02-28 04:00:00 13.2 10 Sudeste 24 Sudeste 0 -- -- 53
2020-02-28 03:00:00 13.2 8 Sudeste 19 Sudeste 0 -- -- 54
2020-02-28 02:00:00 13.4 6 Sudeste 21 Sudeste 0 -- -- 54
2020-02-28 01:00:00 13.1 13 Sudeste 21 Sudeste 0 -- -- 53
2020-02-28 00:00:00 12.9 11 Sudeste 17 Sudeste 0 -- -- 51